sensor_id;sensor_type;location;lat;lon;timestamp;temperature;humidity
46139;DHT22;32398;49.112;8.598;2023-06-14T00:01:57;23.70;41.90
46139;DHT22;32398;49.112;8.598;2023-06-14T00:04:24;23.70;41.80
46139;DHT22;32398;49.112;8.598;2023-06-14T00:06:51;23.60;42.40
46139;DHT22;32398;49.112;8.598;2023-06-14T00:09:19;23.60;41.70
46139;DHT22;32398;49.112;8.598;2023-06-14T00:11:45;23.50;41.90
46139;DHT22;32398;49.112;8.598;2023-06-14T00:14:12;23.50;42.00
46139;DHT22;32398;49.112;8.598;2023-06-14T00:16:39;23.40;41.70
46139;DHT22;32398;49.112;8.598;2023-06-14T00:19:07;23.40;42.00
46139;DHT22;32398;49.112;8.598;2023-06-14T00:21:35;23.40;42.20
46139;DHT22;32398;49.112;8.598;2023-06-14T00:24:03;23.30;43.10
46139;DHT22;32398;49.112;8.598;2023-06-14T00:26:31;23.30;42.40
46139;DHT22;32398;49.112;8.598;2023-06-14T00:28:57;23.20;42.50
46139;DHT22;32398;49.112;8.598;2023-06-14T00:31:24;23.20;42.40
46139;DHT22;32398;49.112;8.598;2023-06-14T00:33:51;23.20;42.50
46139;DHT22;32398;49.112;8.598;2023-06-14T00:36:17;23.10;42.40
46139;DHT22;32398;49.112;8.598;2023-06-14T00:38:44;23.00;42.20
46139;DHT22;32398;49.112;8.598;2023-06-14T00:41:10;23.00;42.50
46139;DHT22;32398;49.112;8.598;2023-06-14T00:43:38;23.00;42.60
46139;DHT22;32398;49.112;8.598;2023-06-14T00:46:04;23.00;42.70
46139;DHT22;32398;49.112;8.598;2023-06-14T00:48:31;22.90;42.80
46139;DHT22;32398;49.112;8.598;2023-06-14T00:50:58;22.90;42.90
46139;DHT22;32398;49.112;8.598;2023-06-14T00:53:29;22.80;42.80
46139;DHT22;32398;49.112;8.598;2023-06-14T00:55:56;22.80;42.90
46139;DHT22;32398;49.112;8.598;2023-06-14T00:58:22;22.70;42.90
46139;DHT22;32398;49.112;8.598;2023-06-14T01:00:50;22.70;42.90
46139;DHT22;32398;49.112;8.598;2023-06-14T01:03:17;22.70;43.00
46139;DHT22;32398;49.112;8.598;2023-06-14T01:05:47;22.70;43.00
46139;DHT22;32398;49.112;8.598;2023-06-14T01:08:15;22.60;43.00
46139;DHT22;32398;49.112;8.598;2023-06-14T01:10:45;22.60;43.30
46139;DHT22;32398;49.112;8.598;2023-06-14T01:13:15;22.50;43.20
46139;DHT22;32398;49.112;8.598;2023-06-14T01:15:45;22.50;43.40
46139;DHT22;32398;49.112;8.598;2023-06-14T01:18:14;22.50;43.30
46139;DHT22;32398;49.112;8.598;2023-06-14T01:20:44;22.50;43.30
46139;DHT22;32398;49.112;8.598;2023-06-14T01:23:16;22.40;43.30
46139;DHT22;32398;49.112;8.598;2023-06-14T01:25:42;22.40;43.60
46139;DHT22;32398;49.112;8.598;2023-06-14T01:28:10;22.30;43.40
46139;DHT22;32398;49.112;8.598;2023-06-14T01:30:38;22.30;43.50
46139;DHT22;32398;49.112;8.598;2023-06-14T01:33:10;22.30;43.50
46139;DHT22;32398;49.112;8.598;2023-06-14T01:35:36;22.20;43.60
46139;DHT22;32398;49.112;8.598;2023-06-14T01:38:03;22.20;43.50
46139;DHT22;32398;49.112;8.598;2023-06-14T01:40:31;22.20;43.60
46139;DHT22;32398;49.112;8.598;2023-06-14T01:42:58;22.10;43.50
46139;DHT22;32398;49.112;8.598;2023-06-14T01:45:25;22.10;43.60
46139;DHT22;32398;49.112;8.598;2023-06-14T01:47:52;22.10;43.70
46139;DHT22;32398;49.112;8.598;2023-06-14T01:50:18;22.10;43.80
46139;DHT22;32398;49.112;8.598;2023-06-14T01:52:45;22.00;43.80
46139;DHT22;32398;49.112;8.598;2023-06-14T01:55:12;22.00;43.90
46139;DHT22;32398;49.112;8.598;2023-06-14T01:57:40;21.90;43.90
46139;DHT22;32398;49.112;8.598;2023-06-14T02:00:07;21.90;43.80
46139;DHT22;32398;49.112;8.598;2023-06-14T02:02:37;21.90;43.90
46139;DHT22;32398;49.112;8.598;2023-06-14T02:05:04;21.90;44.00
46139;DHT22;32398;49.112;8.598;2023-06-14T02:07:31;21.80;44.10
46139;DHT22;32398;49.112;8.598;2023-06-14T02:09:58;21.80;44.10
46139;DHT22;32398;49.112;8.598;2023-06-14T02:12:25;21.80;44.30
46139;DHT22;32398;49.112;8.598;2023-06-14T02:14:53;21.70;44.20
46139;DHT22;32398;49.112;8.598;2023-06-14T02:17:21;21.70;44.30
46139;DHT22;32398;49.112;8.598;2023-06-14T02:19:48;21.70;45.00
46139;DHT22;32398;49.112;8.598;2023-06-14T02:22:15;21.60;44.40
46139;DHT22;32398;49.112;8.598;2023-06-14T02:24:42;21.60;44.60
46139;DHT22;32398;49.112;8.598;2023-06-14T02:27:08;21.60;44.70
46139;DHT22;32398;49.112;8.598;2023-06-14T02:29:35;21.50;44.70
46139;DHT22;32398;49.112;8.598;2023-06-14T02:32:03;21.50;44.70
46139;DHT22;32398;49.112;8.598;2023-06-14T02:34:30;21.50;44.80
46139;DHT22;32398;49.112;8.598;2023-06-14T02:36:58;21.40;44.80
46139;DHT22;32398;49.112;8.598;2023-06-14T02:39:24;21.40;45.10
46139;DHT22;32398;49.112;8.598;2023-06-14T02:41:51;21.40;45.00
46139;DHT22;32398;49.112;8.598;2023-06-14T02:44:18;21.30;45.10
46139;DHT22;32398;49.112;8.598;2023-06-14T02:46:44;21.30;45.20
46139;DHT22;32398;49.112;8.598;2023-06-14T02:49:12;21.30;45.20
46139;DHT22;32398;49.112;8.598;2023-06-14T02:51:39;21.20;45.20
46139;DHT22;32398;49.112;8.598;2023-06-14T02:54:05;21.20;45.30
46139;DHT22;32398;49.112;8.598;2023-06-14T02:56:32;21.20;45.40
46139;DHT22;32398;49.112;8.598;2023-06-14T02:58:58;21.10;45.50
46139;DHT22;32398;49.112;8.598;2023-06-14T03:01:25;21.10;45.50
46139;DHT22;32398;49.112;8.598;2023-06-14T03:03:58;21.10;45.60
46139;DHT22;32398;49.112;8.598;2023-06-14T03:06:26;21.10;45.70
46139;DHT22;32398;49.112;8.598;2023-06-14T03:08:55;21.00;45.80
46139;DHT22;32398;49.112;8.598;2023-06-14T03:11:24;21.00;45.80
46139;DHT22;32398;49.112;8.598;2023-06-14T03:13:51;21.00;45.90
46139;DHT22;32398;49.112;8.598;2023-06-14T03:16:17;21.00;45.90
46139;DHT22;32398;49.112;8.598;2023-06-14T03:18:45;20.90;46.50
46139;DHT22;32398;49.112;8.598;2023-06-14T03:21:12;20.90;46.00
46139;DHT22;32398;49.112;8.598;2023-06-14T03:23:42;20.90;46.20
46139;DHT22;32398;49.112;8.598;2023-06-14T03:26:09;20.80;46.10
46139;DHT22;32398;49.112;8.598;2023-06-14T03:28:38;20.80;46.10
46139;DHT22;32398;49.112;8.598;2023-06-14T03:31:04;20.80;46.10
46139;DHT22;32398;49.112;8.598;2023-06-14T03:33:31;20.70;46.20
46139;DHT22;32398;49.112;8.598;2023-06-14T03:35:58;20.70;46.20
46139;DHT22;32398;49.112;8.598;2023-06-14T03:38:24;20.70;46.30
46139;DHT22;32398;49.112;8.598;2023-06-14T03:40:52;20.60;46.40
46139;DHT22;32398;49.112;8.598;2023-06-14T03:43:19;20.60;46.50
46139;DHT22;32398;49.112;8.598;2023-06-14T03:45:45;20.60;46.60
46139;DHT22;32398;49.112;8.598;2023-06-14T03:48:12;20.60;46.70
46139;DHT22;32398;49.112;8.598;2023-06-14T03:50:38;20.60;46.70
46139;DHT22;32398;49.112;8.598;2023-06-14T03:53:05;20.50;46.80
46139;DHT22;32398;49.112;8.598;2023-06-14T03:55:32;20.50;46.80
46139;DHT22;32398;49.112;8.598;2023-06-14T03:58:00;20.50;46.90
46139;DHT22;32398;49.112;8.598;2023-06-14T04:00:27;20.40;46.90
46139;DHT22;32398;49.112;8.598;2023-06-14T04:02:54;20.40;47.00
46139;DHT22;32398;49.112;8.598;2023-06-14T04:05:20;20.40;47.10
46139;DHT22;32398;49.112;8.598;2023-06-14T04:07:47;20.40;47.20
46139;DHT22;32398;49.112;8.598;2023-06-14T04:10:14;20.40;47.20
46139;DHT22;32398;49.112;8.598;2023-06-14T04:12:41;20.30;47.20
46139;DHT22;32398;49.112;8.598;2023-06-14T04:15:09;20.30;47.30
46139;DHT22;32398;49.112;8.598;2023-06-14T04:17:36;20.30;47.40
46139;DHT22;32398;49.112;8.598;2023-06-14T04:20:03;20.30;47.50
46139;DHT22;32398;49.112;8.598;2023-06-14T04:22:32;20.20;47.50
46139;DHT22;32398;49.112;8.598;2023-06-14T04:24:58;20.20;47.50
46139;DHT22;32398;49.112;8.598;2023-06-14T04:27:26;20.20;47.60
46139;DHT22;32398;49.112;8.598;2023-06-14T04:29:53;20.10;47.70
46139;DHT22;32398;49.112;8.598;2023-06-14T04:32:24;20.10;47.80
46139;DHT22;32398;49.112;8.598;2023-06-14T04:34:52;20.10;47.80
46139;DHT22;32398;49.112;8.598;2023-06-14T04:37:19;20.10;48.00
46139;DHT22;32398;49.112;8.598;2023-06-14T04:39:46;20.10;48.00
46139;DHT22;32398;49.112;8.598;2023-06-14T04:42:12;20.00;48.10
46139;DHT22;32398;49.112;8.598;2023-06-14T04:44:40;20.00;48.10
46139;DHT22;32398;49.112;8.598;2023-06-14T04:47:06;20.00;48.20
46139;DHT22;32398;49.112;8.598;2023-06-14T04:49:34;20.00;48.40
46139;DHT22;32398;49.112;8.598;2023-06-14T04:52:01;20.00;48.50
46139;DHT22;32398;49.112;8.598;2023-06-14T04:54:27;19.90;48.60
46139;DHT22;32398;49.112;8.598;2023-06-14T04:56:56;19.90;48.80
46139;DHT22;32398;49.112;8.598;2023-06-14T04:59:23;19.90;48.90
46139;DHT22;32398;49.112;8.598;2023-06-14T05:01:50;19.90;49.00
46139;DHT22;32398;49.112;8.598;2023-06-14T05:04:17;19.80;49.10
46139;DHT22;32398;49.112;8.598;2023-06-14T05:06:45;19.80;49.20
46139;DHT22;32398;49.112;8.598;2023-06-14T05:09:13;19.80;49.40
46139;DHT22;32398;49.112;8.598;2023-06-14T05:11:40;19.80;49.50
46139;DHT22;32398;49.112;8.598;2023-06-14T05:14:09;19.80;49.60
46139;DHT22;32398;49.112;8.598;2023-06-14T05:16:35;19.80;49.60
46139;DHT22;32398;49.112;8.598;2023-06-14T05:19:02;19.80;49.60
46139;DHT22;32398;49.112;8.598;2023-06-14T05:21:29;19.70;50.70
46139;DHT22;32398;49.112;8.598;2023-06-14T05:23:58;19.60;51.00
46139;DHT22;32398;49.112;8.598;2023-06-14T05:26:25;19.60;51.10
46139;DHT22;32398;49.112;8.598;2023-06-14T05:28:54;19.50;51.20
46139;DHT22;32398;49.112;8.598;2023-06-14T05:31:21;19.50;51.20
46139;DHT22;32398;49.112;8.598;2023-06-14T05:33:48;19.40;51.20
46139;DHT22;32398;49.112;8.598;2023-06-14T05:36:14;19.50;51.40
46139;DHT22;32398;49.112;8.598;2023-06-14T05:38:41;19.50;51.40
46139;DHT22;32398;49.112;8.598;2023-06-14T05:41:09;19.50;51.40
46139;DHT22;32398;49.112;8.598;2023-06-14T05:43:35;19.50;51.40
46139;DHT22;32398;49.112;8.598;2023-06-14T05:46:02;19.50;51.40
46139;DHT22;32398;49.112;8.598;2023-06-14T05:48:28;19.50;51.50
46139;DHT22;32398;49.112;8.598;2023-06-14T05:50:55;19.50;51.50
46139;DHT22;32398;49.112;8.598;2023-06-14T05:53:22;19.50;51.50
46139;DHT22;32398;49.112;8.598;2023-06-14T05:55:48;19.50;51.50
46139;DHT22;32398;49.112;8.598;2023-06-14T05:58:17;19.50;51.60
46139;DHT22;32398;49.112;8.598;2023-06-14T06:00:43;19.60;51.60
46139;DHT22;32398;49.112;8.598;2023-06-14T06:03:10;19.60;51.70
46139;DHT22;32398;49.112;8.598;2023-06-14T06:05:36;19.60;51.60
46139;DHT22;32398;49.112;8.598;2023-06-14T06:08:03;19.50;51.50
46139;DHT22;32398;49.112;8.598;2023-06-14T06:10:29;19.60;51.40
46139;DHT22;32398;49.112;8.598;2023-06-14T06:12:56;19.60;51.40
46139;DHT22;32398;49.112;8.598;2023-06-14T06:15:24;19.60;51.30
46139;DHT22;32398;49.112;8.598;2023-06-14T06:17:51;19.60;51.30
46139;DHT22;32398;49.112;8.598;2023-06-14T06:20:17;19.60;51.40
46139;DHT22;32398;49.112;8.598;2023-06-14T06:22:44;19.60;51.30
46139;DHT22;32398;49.112;8.598;2023-06-14T06:25:10;19.70;51.30
46139;DHT22;32398;49.112;8.598;2023-06-14T06:27:37;19.60;51.30
46139;DHT22;32398;49.112;8.598;2023-06-14T06:30:06;19.70;51.30
46139;DHT22;32398;49.112;8.598;2023-06-14T06:32:34;19.70;51.20
46139;DHT22;32398;49.112;8.598;2023-06-14T06:35:00;19.70;51.20
46139;DHT22;32398;49.112;8.598;2023-06-14T06:37:27;19.70;51.10
46139;DHT22;32398;49.112;8.598;2023-06-14T06:39:53;19.70;51.10
46139;DHT22;32398;49.112;8.598;2023-06-14T06:42:20;19.70;51.00
46139;DHT22;32398;49.112;8.598;2023-06-14T06:44:46;19.70;51.00
46139;DHT22;32398;49.112;8.598;2023-06-14T06:47:13;19.80;51.10
46139;DHT22;32398;49.112;8.598;2023-06-14T06:49:41;19.80;51.00
46139;DHT22;32398;49.112;8.598;2023-06-14T06:52:08;19.80;51.00
46139;DHT22;32398;49.112;8.598;2023-06-14T06:54:34;19.80;50.90
46139;DHT22;32398;49.112;8.598;2023-06-14T06:57:01;19.80;50.90
46139;DHT22;32398;49.112;8.598;2023-06-14T06:59:27;19.80;50.90
46139;DHT22;32398;49.112;8.598;2023-06-14T07:01:54;19.80;50.80
46139;DHT22;32398;49.112;8.598;2023-06-14T07:04:20;19.90;50.80
46139;DHT22;32398;49.112;8.598;2023-06-14T07:06:48;19.90;50.90
46139;DHT22;32398;49.112;8.598;2023-06-14T07:09:15;19.90;50.90
46139;DHT22;32398;49.112;8.598;2023-06-14T07:11:43;19.90;50.90
46139;DHT22;32398;49.112;8.598;2023-06-14T07:14:10;19.90;51.40
46139;DHT22;32398;49.112;8.598;2023-06-14T07:16:36;19.90;50.70
46139;DHT22;32398;49.112;8.598;2023-06-14T07:19:03;20.00;50.70
46139;DHT22;32398;49.112;8.598;2023-06-14T07:21:29;20.00;50.70
46139;DHT22;32398;49.112;8.598;2023-06-14T07:23:57;20.00;50.80
46139;DHT22;32398;49.112;8.598;2023-06-14T07:26:24;20.00;50.70
46139;DHT22;32398;49.112;8.598;2023-06-14T07:28:50;20.00;50.70
46139;DHT22;32398;49.112;8.598;2023-06-14T07:31:18;20.00;51.10
46139;DHT22;32398;49.112;8.598;2023-06-14T07:33:44;20.10;50.40
46139;DHT22;32398;49.112;8.598;2023-06-14T07:36:11;20.10;50.40
46139;DHT22;32398;49.112;8.598;2023-06-14T07:38:37;20.00;50.30
46139;DHT22;32398;49.112;8.598;2023-06-14T07:41:07;20.10;50.30
46139;DHT22;32398;49.112;8.598;2023-06-14T07:43:33;20.10;50.30
46139;DHT22;32398;49.112;8.598;2023-06-14T07:46:00;20.10;50.30
46139;DHT22;32398;49.112;8.598;2023-06-14T07:48:27;20.20;50.30
46139;DHT22;32398;49.112;8.598;2023-06-14T07:50:53;20.20;50.40
46139;DHT22;32398;49.112;8.598;2023-06-14T07:53:20;20.20;50.20
46139;DHT22;32398;49.112;8.598;2023-06-14T07:55:47;20.20;50.10
46139;DHT22;32398;49.112;8.598;2023-06-14T07:58:15;20.20;50.30
46139;DHT22;32398;49.112;8.598;2023-06-14T08:00:41;20.30;50.20
46139;DHT22;32398;49.112;8.598;2023-06-14T08:03:08;20.30;50.30
46139;DHT22;32398;49.112;8.598;2023-06-14T08:05:35;20.30;50.30
46139;DHT22;32398;49.112;8.598;2023-06-14T08:08:01;20.30;50.10
46139;DHT22;32398;49.112;8.598;2023-06-14T08:10:28;20.30;50.00
46139;DHT22;32398;49.112;8.598;2023-06-14T08:12:54;20.40;49.90
46139;DHT22;32398;49.112;8.598;2023-06-14T08:15:22;20.40;49.90
46139;DHT22;32398;49.112;8.598;2023-06-14T08:17:49;20.40;49.80
46139;DHT22;32398;49.112;8.598;2023-06-14T08:20:15;20.40;49.80
46139;DHT22;32398;49.112;8.598;2023-06-14T08:22:42;20.50;49.90
46139;DHT22;32398;49.112;8.598;2023-06-14T08:25:11;20.50;49.90
46139;DHT22;32398;49.112;8.598;2023-06-14T08:27:38;20.50;49.80
46139;DHT22;32398;49.112;8.598;2023-06-14T08:30:05;20.60;49.70
46139;DHT22;32398;49.112;8.598;2023-06-14T08:32:34;20.60;50.10
46139;DHT22;32398;49.112;8.598;2023-06-14T08:35:01;20.60;49.50
46139;DHT22;32398;49.112;8.598;2023-06-14T08:37:27;20.60;49.50
46139;DHT22;32398;49.112;8.598;2023-06-14T08:39:55;20.70;49.70
46139;DHT22;32398;49.112;8.598;2023-06-14T08:42:21;20.70;49.50
46139;DHT22;32398;49.112;8.598;2023-06-14T08:44:50;20.70;49.30
46139;DHT22;32398;49.112;8.598;2023-06-14T08:47:16;20.70;49.50
46139;DHT22;32398;49.112;8.598;2023-06-14T08:49:46;20.80;49.40
46139;DHT22;32398;49.112;8.598;2023-06-14T08:52:13;20.80;49.30
46139;DHT22;32398;49.112;8.598;2023-06-14T08:54:43;20.80;49.30
46139;DHT22;32398;49.112;8.598;2023-06-14T08:57:14;20.90;49.20
46139;DHT22;32398;49.112;8.598;2023-06-14T08:59:45;20.90;49.20
46139;DHT22;32398;49.112;8.598;2023-06-14T09:02:14;21.00;49.10
46139;DHT22;32398;49.112;8.598;2023-06-14T09:04:43;21.00;49.00
46139;DHT22;32398;49.112;8.598;2023-06-14T09:07:11;21.00;49.00
46139;DHT22;32398;49.112;8.598;2023-06-14T09:09:38;21.10;49.00
46139;DHT22;32398;49.112;8.598;2023-06-14T09:12:06;21.10;49.30
46139;DHT22;32398;49.112;8.598;2023-06-14T09:14:35;21.20;49.20
46139;DHT22;32398;49.112;8.598;2023-06-14T09:17:03;21.20;49.20
46139;DHT22;32398;49.112;8.598;2023-06-14T09:19:30;21.20;49.00
46139;DHT22;32398;49.112;8.598;2023-06-14T09:21:57;21.30;48.90
46139;DHT22;32398;49.112;8.598;2023-06-14T09:24:25;21.30;48.90
46139;DHT22;32398;49.112;8.598;2023-06-14T09:26:51;21.30;48.70
46139;DHT22;32398;49.112;8.598;2023-06-14T09:29:18;21.40;48.40
46139;DHT22;32398;49.112;8.598;2023-06-14T09:31:45;21.40;48.40
46139;DHT22;32398;49.112;8.598;2023-06-14T09:34:12;21.40;48.20
46139;DHT22;32398;49.112;8.598;2023-06-14T09:36:39;21.50;47.90
46139;DHT22;32398;49.112;8.598;2023-06-14T09:39:06;21.50;47.60
46139;DHT22;32398;49.112;8.598;2023-06-14T09:41:35;21.60;47.60
46139;DHT22;32398;49.112;8.598;2023-06-14T09:44:02;21.60;47.60
46139;DHT22;32398;49.112;8.598;2023-06-14T09:46:29;21.70;48.30
46139;DHT22;32398;49.112;8.598;2023-06-14T09:48:56;21.70;47.70
46139;DHT22;32398;49.112;8.598;2023-06-14T09:51:23;21.80;47.60
46139;DHT22;32398;49.112;8.598;2023-06-14T09:53:49;21.90;47.40
46139;DHT22;32398;49.112;8.598;2023-06-14T09:56:16;21.90;47.00
46139;DHT22;32398;49.112;8.598;2023-06-14T09:58:47;22.00;46.80
46139;DHT22;32398;49.112;8.598;2023-06-14T10:01:14;22.10;46.70
46139;DHT22;32398;49.112;8.598;2023-06-14T10:03:40;22.10;46.70
46139;DHT22;32398;49.112;8.598;2023-06-14T10:06:08;22.20;46.40
46139;DHT22;32398;49.112;8.598;2023-06-14T10:08:35;22.30;46.50
46139;DHT22;32398;49.112;8.598;2023-06-14T10:11:02;22.30;46.30
46139;DHT22;32398;49.112;8.598;2023-06-14T10:13:30;22.40;46.20
46139;DHT22;32398;49.112;8.598;2023-06-14T10:16:00;22.50;46.00
46139;DHT22;32398;49.112;8.598;2023-06-14T10:18:33;22.60;45.90
46139;DHT22;32398;49.112;8.598;2023-06-14T10:21:04;22.60;45.80
46139;DHT22;32398;49.112;8.598;2023-06-14T10:23:35;22.70;45.70
46139;DHT22;32398;49.112;8.598;2023-06-14T10:26:03;22.70;45.50
46139;DHT22;32398;49.112;8.598;2023-06-14T10:28:30;22.80;45.40
46139;DHT22;32398;49.112;8.598;2023-06-14T10:31:05;22.90;45.20
46139;DHT22;32398;49.112;8.598;2023-06-14T10:33:32;22.90;45.00
46139;DHT22;32398;49.112;8.598;2023-06-14T10:36:06;23.00;45.00
46139;DHT22;32398;49.112;8.598;2023-06-14T10:38:33;23.10;44.40
46139;DHT22;32398;49.112;8.598;2023-06-14T10:41:00;23.20;44.00
46139;DHT22;32398;49.112;8.598;2023-06-14T10:43:28;23.20;44.10
46139;DHT22;32398;49.112;8.598;2023-06-14T10:48:41;23.40;44.20
46139;DHT22;32398;49.112;8.598;2023-06-14T10:51:13;23.50;44.00
46139;DHT22;32398;49.112;8.598;2023-06-14T10:53:42;23.50;43.90
46139;DHT22;32398;49.112;8.598;2023-06-14T10:56:08;23.60;43.40
46139;DHT22;32398;49.112;8.598;2023-06-14T10:58:36;23.70;43.50
46139;DHT22;32398;49.112;8.598;2023-06-14T11:01:03;23.80;43.70
46139;DHT22;32398;49.112;8.598;2023-06-14T11:03:35;23.80;43.60
46139;DHT22;32398;49.112;8.598;2023-06-14T11:06:10;23.90;43.50
46139;DHT22;32398;49.112;8.598;2023-06-14T11:11:21;24.00;43.50
46139;DHT22;32398;49.112;8.598;2023-06-14T11:13:48;24.00;43.10
46139;DHT22;32398;49.112;8.598;2023-06-14T11:16:15;24.00;43.20
46139;DHT22;32398;49.112;8.598;2023-06-14T11:18:42;24.00;43.30
46139;DHT22;32398;49.112;8.598;2023-06-14T11:21:14;24.10;43.20
46139;DHT22;32398;49.112;8.598;2023-06-14T11:23:41;24.10;43.30
46139;DHT22;32398;49.112;8.598;2023-06-14T11:26:08;24.20;42.70
46139;DHT22;32398;49.112;8.598;2023-06-14T11:28:35;24.20;42.80
46139;DHT22;32398;49.112;8.598;2023-06-14T11:31:02;24.20;43.10
46139;DHT22;32398;49.112;8.598;2023-06-14T11:33:29;24.30;42.80
46139;DHT22;32398;49.112;8.598;2023-06-14T11:35:56;24.30;42.90
46139;DHT22;32398;49.112;8.598;2023-06-14T11:38:24;24.40;42.80
46139;DHT22;32398;49.112;8.598;2023-06-14T11:40:51;24.50;42.80
46139;DHT22;32398;49.112;8.598;2023-06-14T11:43:17;24.50;42.10
46139;DHT22;32398;49.112;8.598;2023-06-14T11:45:45;24.50;42.70
46139;DHT22;32398;49.112;8.598;2023-06-14T11:48:14;24.60;42.40
46139;DHT22;32398;49.112;8.598;2023-06-14T11:50:40;24.60;42.50
46139;DHT22;32398;49.112;8.598;2023-06-14T11:53:07;24.70;42.60
46139;DHT22;32398;49.112;8.598;2023-06-14T11:55:37;24.80;42.50
46139;DHT22;32398;49.112;8.598;2023-06-14T11:58:04;24.90;41.50
46139;DHT22;32398;49.112;8.598;2023-06-14T12:00:31;24.90;41.00
46139;DHT22;32398;49.112;8.598;2023-06-14T12:02:58;25.00;41.50
46139;DHT22;32398;49.112;8.598;2023-06-14T12:05:25;25.10;41.90
46139;DHT22;32398;49.112;8.598;2023-06-14T12:07:57;25.10;42.00
46139;DHT22;32398;49.112;8.598;2023-06-14T12:10:25;25.20;41.80
46139;DHT22;32398;49.112;8.598;2023-06-14T12:12:56;25.20;42.10
46139;DHT22;32398;49.112;8.598;2023-06-14T12:15:23;25.30;42.20
46139;DHT22;32398;49.112;8.598;2023-06-14T12:17:50;25.40;41.60
46139;DHT22;32398;49.112;8.598;2023-06-14T12:20:18;25.40;41.60
46139;DHT22;32398;49.112;8.598;2023-06-14T12:22:47;25.30;41.50
46139;DHT22;32398;49.112;8.598;2023-06-14T12:25:23;25.40;41.30
46139;DHT22;32398;49.112;8.598;2023-06-14T12:27:53;25.40;40.90
46139;DHT22;32398;49.112;8.598;2023-06-14T12:30:20;25.40;39.20
46139;DHT22;32398;49.112;8.598;2023-06-14T12:32:46;25.50;40.00
46139;DHT22;32398;49.112;8.598;2023-06-14T12:35:13;25.50;40.30
46139;DHT22;32398;49.112;8.598;2023-06-14T12:37:40;25.50;40.30
46139;DHT22;32398;49.112;8.598;2023-06-14T12:40:07;25.60;40.50
46139;DHT22;32398;49.112;8.598;2023-06-14T12:42:33;25.60;40.20
46139;DHT22;32398;49.112;8.598;2023-06-14T12:45:02;25.70;40.90
46139;DHT22;32398;49.112;8.598;2023-06-14T12:47:29;25.70;41.10
46139;DHT22;32398;49.112;8.598;2023-06-14T12:49:56;25.70;41.30
46139;DHT22;32398;49.112;8.598;2023-06-14T12:52:22;25.70;41.50
46139;DHT22;32398;49.112;8.598;2023-06-14T12:54:49;25.60;41.20
46139;DHT22;32398;49.112;8.598;2023-06-14T12:57:15;25.60;41.30
46139;DHT22;32398;49.112;8.598;2023-06-14T12:59:42;25.60;40.80
46139;DHT22;32398;49.112;8.598;2023-06-14T13:02:16;25.60;40.40
46139;DHT22;32398;49.112;8.598;2023-06-14T13:04:43;25.60;40.00
46139;DHT22;32398;49.112;8.598;2023-06-14T13:07:10;25.60;40.30
46139;DHT22;32398;49.112;8.598;2023-06-14T13:09:37;25.70;40.20
46139;DHT22;32398;49.112;8.598;2023-06-14T13:12:03;25.70;40.50
46139;DHT22;32398;49.112;8.598;2023-06-14T13:14:30;25.70;40.10
46139;DHT22;32398;49.112;8.598;2023-06-14T13:16:57;25.80;40.30
46139;DHT22;32398;49.112;8.598;2023-06-14T13:19:25;25.80;40.50
46139;DHT22;32398;49.112;8.598;2023-06-14T13:21:51;25.90;41.00
46139;DHT22;32398;49.112;8.598;2023-06-14T13:24:18;25.90;41.40
46139;DHT22;32398;49.112;8.598;2023-06-14T13:26:45;25.90;41.80
46139;DHT22;32398;49.112;8.598;2023-06-14T13:29:11;26.00;40.90
46139;DHT22;32398;49.112;8.598;2023-06-14T13:31:38;26.00;40.80
46139;DHT22;32398;49.112;8.598;2023-06-14T13:34:04;26.00;41.20
46139;DHT22;32398;49.112;8.598;2023-06-14T13:36:32;26.10;40.60
46139;DHT22;32398;49.112;8.598;2023-06-14T13:38:59;26.10;40.90
46139;DHT22;32398;49.112;8.598;2023-06-14T13:41:28;26.10;40.40
46139;DHT22;32398;49.112;8.598;2023-06-14T13:43:57;26.10;40.50
46139;DHT22;32398;49.112;8.598;2023-06-14T13:46:23;26.20;40.50
46139;DHT22;32398;49.112;8.598;2023-06-14T13:48:50;26.20;40.40
46139;DHT22;32398;49.112;8.598;2023-06-14T13:51:17;26.20;40.00
46139;DHT22;32398;49.112;8.598;2023-06-14T13:53:47;26.30;39.70
46139;DHT22;32398;49.112;8.598;2023-06-14T13:56:14;26.30;39.20
46139;DHT22;32398;49.112;8.598;2023-06-14T13:58:40;26.30;38.70
46139;DHT22;32398;49.112;8.598;2023-06-14T14:01:07;26.40;39.00
46139;DHT22;32398;49.112;8.598;2023-06-14T14:03:34;26.40;39.30
46139;DHT22;32398;49.112;8.598;2023-06-14T14:06:00;26.50;39.60
46139;DHT22;32398;49.112;8.598;2023-06-14T14:08:27;26.60;39.30
46139;DHT22;32398;49.112;8.598;2023-06-14T14:10:55;26.60;39.20
46139;DHT22;32398;49.112;8.598;2023-06-14T14:13:21;26.70;39.30
46139;DHT22;32398;49.112;8.598;2023-06-14T14:15:48;26.70;39.60
46139;DHT22;32398;49.112;8.598;2023-06-14T14:18:16;26.80;39.40
46139;DHT22;32398;49.112;8.598;2023-06-14T14:20:42;26.80;34.10
46139;DHT22;32398;49.112;8.598;2023-06-14T14:23:09;26.90;35.30
46139;DHT22;32398;49.112;8.598;2023-06-14T14:25:35;27.00;35.50
46139;DHT22;32398;49.112;8.598;2023-06-14T14:28:03;27.20;35.50
46139;DHT22;32398;49.112;8.598;2023-06-14T14:30:30;27.40;35.30
46139;DHT22;32398;49.112;8.598;2023-06-14T14:32:56;27.60;35.40
46139;DHT22;32398;49.112;8.598;2023-06-14T14:35:23;27.70;35.20
46139;DHT22;32398;49.112;8.598;2023-06-14T14:37:51;27.90;35.10
46139;DHT22;32398;49.112;8.598;2023-06-14T14:40:17;28.00;35.10
46139;DHT22;32398;49.112;8.598;2023-06-14T14:42:44;28.20;35.10
46139;DHT22;32398;49.112;8.598;2023-06-14T14:45:12;28.30;35.20
46139;DHT22;32398;49.112;8.598;2023-06-14T14:47:38;28.40;35.00
46139;DHT22;32398;49.112;8.598;2023-06-14T14:50:05;28.60;34.90
46139;DHT22;32398;49.112;8.598;2023-06-14T14:52:33;28.60;34.70
46139;DHT22;32398;49.112;8.598;2023-06-14T14:55:00;28.70;34.50
46139;DHT22;32398;49.112;8.598;2023-06-14T14:57:27;28.70;34.40
46139;DHT22;32398;49.112;8.598;2023-06-14T14:59:55;28.80;34.40
46139;DHT22;32398;49.112;8.598;2023-06-14T15:02:23;28.80;34.50
46139;DHT22;32398;49.112;8.598;2023-06-14T15:04:50;28.90;34.60
46139;DHT22;32398;49.112;8.598;2023-06-14T15:07:17;28.90;34.50
46139;DHT22;32398;49.112;8.598;2023-06-14T15:09:43;28.90;34.50
46139;DHT22;32398;49.112;8.598;2023-06-14T15:12:10;29.00;34.40
46139;DHT22;32398;49.112;8.598;2023-06-14T15:14:36;29.00;34.50
46139;DHT22;32398;49.112;8.598;2023-06-14T15:17:03;29.00;34.30
46139;DHT22;32398;49.112;8.598;2023-06-14T15:19:31;29.10;34.30
46139;DHT22;32398;49.112;8.598;2023-06-14T15:21:59;29.20;34.30
46139;DHT22;32398;49.112;8.598;2023-06-14T15:24:25;29.20;34.10
46139;DHT22;32398;49.112;8.598;2023-06-14T15:26:52;29.20;34.00
46139;DHT22;32398;49.112;8.598;2023-06-14T15:29:19;29.20;34.10
46139;DHT22;32398;49.112;8.598;2023-06-14T15:31:45;29.30;35.80
46139;DHT22;32398;49.112;8.598;2023-06-14T15:34:13;29.30;35.70
46139;DHT22;32398;49.112;8.598;2023-06-14T15:36:40;29.30;36.10